Time;durP1;ratioP1;P1;durP2;ratioP2;P2;SDS_P1;SDS_P2;PMS_P1;PMS_P2;Temp;Humidity;BMP_temperature;BMP_pressure;BME280_temperature;BME280_humidity;BME280_pressure;Samples;Min_cycle;Max_cycle;Signal;HPM_P1;HPM_P2
2021/10/11 00:01:19;;;;;;;126.53;60.15;;;8.40;99.90;;;;;;5097240;28;20039;-59
2021/10/11 00:03:44;;;;;;;136.98;63.28;;;8.40;99.90;;;;;;5094627;28;20032;-58
2021/10/11 00:06:10;;;;;;;117.13;57.33;;;8.30;99.90;;;;;;5094444;28;20028;-59
2021/10/11 00:08:35;;;;;;;121.03;56.47;;;8.40;99.90;;;;;;5094612;28;20032;-56
2021/10/11 00:11:01;;;;;;;124.88;56.22;;;8.40;99.90;;;;;;5093937;28;20028;-57
2021/10/11 00:13:28;;;;;;;120.10;56.35;;;8.50;99.90;;;;;;5094404;28;20590;-57
2021/10/11 00:15:54;;;;;;;120.57;56.22;;;8.40;99.90;;;;;;5094334;28;20541;-57
2021/10/11 00:18:19;;;;;;;120.75;57.35;;;8.40;99.90;;;;;;5094231;28;20016;-57
2021/10/11 00:20:45;;;;;;;110.85;54.40;;;8.50;99.90;;;;;;5093987;28;20024;-55
2021/10/11 00:23:11;;;;;;;113.65;57.33;;;8.50;99.90;;;;;;5094258;28;20443;-55
2021/10/11 00:25:37;;;;;;;116.43;55.72;;;8.60;99.90;;;;;;5094108;28;20534;-54
2021/10/11 00:28:04;;;;;;;115.88;54.75;;;8.60;99.90;;;;;;5094191;28;20038;-52
2021/10/11 00:30:29;;;;;;;112.90;55.72;;;8.60;99.90;;;;;;5094938;28;20036;-54
2021/10/11 00:32:55;;;;;;;120.50;53.78;;;8.50;99.90;;;;;;5093820;28;20499;-54
2021/10/11 00:35:20;;;;;;;106.85;53.63;;;8.60;99.90;;;;;;5093933;28;20436;-59
2021/10/11 00:37:46;;;;;;;112.63;54.72;;;8.60;99.90;;;;;;5094022;28;20461;-58
2021/10/11 00:40:12;;;;;;;104.43;50.80;;;8.60;99.90;;;;;;5093745;28;20077;-58
2021/10/11 00:42:37;;;;;;;104.72;51.10;;;8.60;99.90;;;;;;5093543;28;20024;-59
2021/10/11 00:45:05;;;;;;;99.93;51.92;;;8.50;99.90;;;;;;5093817;28;20024;-56
2021/10/11 00:47:30;;;;;;;106.15;49.75;;;8.50;99.90;;;;;;5076757;28;20038;-57
2021/10/11 00:49:56;;;;;;;113.88;52.05;;;8.50;99.90;;;;;;5093673;28;20058;-56
2021/10/11 00:52:21;;;;;;;103.75;47.25;;;8.40;99.90;;;;;;5075132;28;20418;-58
2021/10/11 00:54:47;;;;;;;109.05;51.72;;;8.30;99.90;;;;;;5093606;28;20024;-57
2021/10/11 00:57:13;;;;;;;105.25;48.83;;;8.30;99.90;;;;;;5075565;28;20480;-59
2021/10/11 00:59:39;;;;;;;92.80;48.58;;;8.40;99.90;;;;;;5093547;28;20038;-59
2021/10/11 01:02:05;;;;;;;95.13;47.40;;;8.30;99.90;;;;;;5092758;28;20020;-57
2021/10/11 01:04:31;;;;;;;103.43;47.95;;;8.20;99.90;;;;;;5101829;28;20027;-59
2021/10/11 01:06:56;;;;;;;108.90;50.00;;;8.20;99.90;;;;;;5093521;28;20055;-60
2021/10/11 01:09:22;;;;;;;96.70;49.03;;;8.10;99.90;;;;;;5090874;28;20056;-59
2021/10/11 01:11:50;;;;;;;93.03;46.08;;;8.00;99.90;;;;;;5074715;28;20073;-58
2021/10/11 01:14:16;;;;;;;111.93;49.83;;;8.10;99.90;;;;;;5093421;28;20475;-56
2021/10/11 01:16:41;;;;;;;92.00;45.45;;;8.00;99.90;;;;;;5093342;28;20069;-57
2021/10/11 01:19:07;;;;;;;98.72;50.00;;;8.00;99.90;;;;;;5085763;28;20028;-60
2021/10/11 01:21:33;;;;;;;98.15;47.53;;;7.90;99.90;;;;;;5072574;28;20109;-58
2021/10/11 01:23:58;;;;;;;100.13;46.63;;;7.90;99.90;;;;;;5072738;28;20016;-59
2021/10/11 01:26:38;;;;;;;98.57;45.00;;;7.90;99.90;;;;;;5072891;28;20450;-53
2021/10/11 01:29:05;;;;;;;97.05;44.05;;;7.90;99.90;;;;;;5072900;28;20020;-59
2021/10/11 01:31:31;;;;;;;90.03;44.13;;;8.00;99.90;;;;;;5092014;28;20020;-57
2021/10/11 01:33:56;;;;;;;85.45;44.20;;;8.00;99.90;;;;;;5092973;28;20020;-58
2021/10/11 01:36:22;;;;;;;82.22;42.47;;;8.00;99.90;;;;;;5092839;28;20542;-57
2021/10/11 01:38:47;;;;;;;88.78;41.97;;;8.00;99.90;;;;;;5092755;28;20489;-58
2021/10/11 01:41:13;;;;;;;88.45;44.88;;;8.10;99.90;;;;;;5092387;28;20385;-59
2021/10/11 01:43:38;;;;;;;90.07;45.00;;;8.10;99.90;;;;;;5092861;28;20028;-57
2021/10/11 01:46:04;;;;;;;95.50;46.38;;;8.20;99.90;;;;;;5092739;28;20034;-52
2021/10/11 01:48:29;;;;;;;88.05;46.47;;;8.20;99.90;;;;;;5092627;28;20035;-53
2021/10/11 01:50:55;;;;;;;101.32;48.95;;;8.20;99.90;;;;;;5092123;28;20024;-52
2021/10/11 01:53:21;;;;;;;101.80;46.97;;;8.20;99.90;;;;;;5107398;28;20027;-58
2021/10/11 01:55:46;;;;;;;91.93;46.83;;;8.30;99.90;;;;;;5112807;28;20102;-57
2021/10/11 01:58:12;;;;;;;88.40;45.78;;;8.30;99.90;;;;;;5112862;28;20016;-58
2021/10/11 02:00:37;;;;;;;84.60;44.42;;;8.30;99.90;;;;;;5112515;28;20054;-60
2021/10/11 02:03:06;;;;;;;84.28;42.80;;;8.40;99.90;;;;;;5112603;28;20016;-58
2021/10/11 02:05:34;;;;;;;82.88;41.70;;;8.40;99.90;;;;;;5112638;28;20026;-57
2021/10/11 02:07:59;;;;;;;76.15;40.42;;;8.40;99.90;;;;;;5112714;28;20027;-60
2021/10/11 02:10:25;;;;;;;82.43;39.47;;;8.40;99.90;;;;;;5111033;28;20142;-59
2021/10/11 02:12:50;;;;;;;73.88;38.85;;;8.50;99.90;;;;;;5112175;28;20081;-58
2021/10/11 02:15:16;;;;;;;72.93;38.78;;;8.50;99.90;;;;;;5112474;28;20072;-58
2021/10/11 02:17:42;;;;;;;73.40;36.22;;;8.60;99.90;;;;;;5111982;28;20103;-59
2021/10/11 02:20:08;;;;;;;80.07;37.85;;;8.60;99.90;;;;;;5112358;28;20103;-58
2021/10/11 02:22:34;;;;;;;75.45;37.45;;;8.70;99.90;;;;;;5112166;28;20028;-54
2021/10/11 02:24:59;;;;;;;70.78;36.00;;;8.80;99.90;;;;;;5110831;28;20521;-58
2021/10/11 02:27:25;;;;;;;69.10;35.47;;;8.80;99.90;;;;;;5112211;28;20049;-55
2021/10/11 02:29:51;;;;;;;70.88;36.10;;;8.70;99.90;;;;;;5112342;28;20023;-58
2021/10/11 02:32:16;;;;;;;66.65;36.05;;;8.70;99.90;;;;;;5111835;28;20017;-59
2021/10/11 02:34:42;;;;;;;68.60;35.90;;;8.80;99.90;;;;;;5112057;28;20388;-57
2021/10/11 02:37:07;;;;;;;70.43;36.95;;;8.80;99.90;;;;;;5112270;28;20023;-60
2021/10/11 02:39:33;;;;;;;69.68;36.60;;;8.80;99.90;;;;;;5112289;28;20020;-58
2021/10/11 02:41:58;;;;;;;70.32;37.13;;;8.80;99.90;;;;;;5109073;28;20035;-58
2021/10/11 02:44:24;;;;;;;75.22;37.03;;;8.70;99.90;;;;;;5091780;28;20051;-58
2021/10/11 02:46:50;;;;;;;67.18;36.17;;;8.80;99.90;;;;;;5091841;28;20501;-54
2021/10/11 02:49:15;;;;;;;74.13;37.97;;;8.80;99.90;;;;;;5091667;28;20028;-58
2021/10/11 02:51:41;;;;;;;78.40;38.60;;;8.80;99.90;;;;;;5091272;28;20638;-57
2021/10/11 02:54:06;;;;;;;82.75;37.80;;;8.80;99.90;;;;;;5091753;28;20016;-58
2021/10/11 02:56:32;;;;;;;75.70;37.70;;;8.80;99.90;;;;;;5091703;28;20016;-61
2021/10/11 02:58:57;;;;;;;72.85;37.13;;;8.80;99.90;;;;;;5092683;28;20385;-56
2021/10/11 03:01:23;;;;;;;73.55;36.10;;;8.80;99.90;;;;;;5090920;28;20366;-57
2021/10/11 03:03:48;;;;;;;70.80;36.78;;;8.80;99.90;;;;;;5091543;28;20028;-56
2021/10/11 03:06:14;;;;;;;67.68;36.50;;;8.90;99.90;;;;;;5110804;28;20024;-58
2021/10/11 03:08:40;;;;;;;77.03;38.17;;;9.00;99.90;;;;;;5111975;28;20019;-58
2021/10/11 03:11:06;;;;;;;70.90;36.97;;;9.00;99.90;;;;;;5097734;28;20466;-58
2021/10/11 03:13:31;;;;;;;81.85;37.38;;;9.00;99.90;;;;;;5091628;28;20441;-57
2021/10/11 03:15:57;;;;;;;66.82;35.72;;;9.10;99.90;;;;;;5091553;28;20027;-59
2021/10/11 03:18:23;;;;;;;69.80;37.05;;;9.10;99.90;;;;;;5093117;28;20047;-57
2021/10/11 03:20:49;;;;;;;73.13;37.05;;;9.10;99.90;;;;;;5123760;22;20099;-58
2021/10/11 03:23:14;;;;;;;72.97;37.40;;;9.20;99.90;;;;;;5070431;28;20128;-60
2021/10/11 03:25:40;;;;;;;70.43;37.20;;;9.20;99.90;;;;;;5068960;28;20557;-57
2021/10/11 03:28:06;;;;;;;71.28;37.08;;;9.10;99.90;;;;;;5069999;28;20016;-60
2021/10/11 03:30:32;;;;;;;67.03;37.25;;;9.10;99.90;;;;;;5074035;28;20378;-60
2021/10/11 03:32:58;;;;;;;71.70;37.63;;;9.10;99.90;;;;;;5094083;28;20058;-57
2021/10/11 03:35:24;;;;;;;82.13;39.63;;;9.20;99.90;;;;;;5097656;28;20080;-61
2021/10/11 03:37:49;;;;;;;88.50;41.67;;;9.20;99.90;;;;;;5114497;28;20019;-58
2021/10/11 03:40:15;;;;;;;76.97;39.17;;;9.20;99.90;;;;;;5114340;28;20457;-60
2021/10/11 03:42:41;;;;;;;79.65;41.72;;;9.20;99.90;;;;;;5114087;28;20031;-59
2021/10/11 03:45:07;;;;;;;75.15;39.92;;;9.20;99.90;;;;;;5114269;28;20020;-59
2021/10/11 03:47:33;;;;;;;78.90;39.85;;;9.20;99.90;;;;;;5114064;28;20028;-59
2021/10/11 03:49:58;;;;;;;81.20;37.13;;;9.20;99.90;;;;;;5114211;28;20015;-57
2021/10/11 03:52:24;;;;;;;75.75;40.45;;;9.20;99.90;;;;;;5111813;28;20152;-59
2021/10/11 03:54:50;;;;;;;79.40;39.28;;;9.30;99.90;;;;;;5114294;28;20370;-62
2021/10/11 03:57:15;;;;;;;77.38;39.25;;;9.30;99.90;;;;;;5114078;28;20428;-60
2021/10/11 03:59:41;;;;;;;76.38;40.05;;;9.40;99.90;;;;;;5113816;28;20145;-59
2021/10/11 04:02:07;;;;;;;73.18;39.63;;;9.50;99.90;;;;;;5113890;28;20047;-59
2021/10/11 04:04:33;;;;;;;86.35;39.53;;;9.50;99.90;;;;;;5114131;28;20099;-59
2021/10/11 04:07:05;;;;;;;69.72;39.85;;;9.50;99.90;;;;;;5113358;28;20069;-59
2021/10/11 04:09:31;;;;;;;83.68;40.40;;;9.50;99.90;;;;;;5102034;28;20024;-59
2021/10/11 04:12:05;;;;;;;81.50;40.90;;;9.50;99.90;;;;;;5092357;28;20047;-59
2021/10/11 04:14:30;;;;;;;83.15;42.85;;;9.60;99.90;;;;;;5093236;28;20020;-59
2021/10/11 04:16:56;;;;;;;83.68;41.45;;;9.60;99.90;;;;;;5093102;28;20409;-59
2021/10/11 04:19:21;;;;;;;90.35;44.75;;;9.60;99.90;;;;;;5093123;28;20544;-59
2021/10/11 04:21:47;;;;;;;96.13;45.15;;;9.70;99.90;;;;;;5092675;28;20039;-58
2021/10/11 04:24:14;;;;;;;92.45;46.55;;;9.70;99.90;;;;;;5093084;28;20031;-59
2021/10/11 04:26:39;;;;;;;102.05;47.13;;;9.70;99.90;;;;;;5094470;28;20027;-57
2021/10/11 04:29:05;;;;;;;99.07;46.28;;;9.70;99.90;;;;;;5092670;28;20066;-58
2021/10/11 04:31:30;;;;;;;102.43;47.50;;;9.70;99.90;;;;;;5092390;28;20024;-58
2021/10/11 04:33:56;;;;;;;102.53;51.53;;;9.60;99.90;;;;;;5092361;28;20032;-58
2021/10/11 04:36:24;;;;;;;101.40;48.15;;;9.50;99.90;;;;;;5092755;28;20070;-59
2021/10/11 04:38:50;;;;;;;97.15;46.45;;;9.50;99.90;;;;;;5092783;28;20020;-57
2021/10/11 04:41:16;;;;;;;101.35;48.90;;;9.40;99.90;;;;;;5091875;28;20035;-58
2021/10/11 04:43:41;;;;;;;103.55;49.78;;;9.30;99.90;;;;;;5093581;28;20024;-59
2021/10/11 04:46:07;;;;;;;94.43;45.38;;;9.20;99.90;;;;;;5092673;28;20092;-56
2021/10/11 04:48:33;;;;;;;94.65;47.63;;;9.30;99.90;;;;;;5092521;28;20059;-59
2021/10/11 04:50:58;;;;;;;100.85;47.90;;;9.20;99.90;;;;;;5091960;28;20408;-59
2021/10/11 04:53:24;;;;;;;107.32;48.97;;;9.20;99.90;;;;;;5091982;28;20020;-60
2021/10/11 04:55:49;;;;;;;100.65;48.60;;;9.10;99.90;;;;;;5092334;28;20044;-59
2021/10/11 04:58:15;;;;;;;111.60;51.50;;;9.20;99.90;;;;;;5074084;28;20024;-57
2021/10/11 05:00:40;;;;;;;93.93;46.70;;;9.30;99.90;;;;;;5111703;28;20473;-58
2021/10/11 05:03:06;;;;;;;89.80;44.03;;;9.40;99.90;;;;;;5112557;28;20019;-60
2021/10/11 05:05:32;;;;;;;107.72;49.42;;;9.50;99.90;;;;;;5098265;28;20055;-58
2021/10/11 05:07:59;;;;;;;105.47;50.63;;;9.50;99.90;;;;;;5091853;28;20055;-57
2021/10/11 05:10:25;;;;;;;121.22;52.15;;;9.50;99.90;;;;;;5092097;28;20012;-58
2021/10/11 05:12:50;;;;;;;114.15;53.10;;;9.50;99.90;;;;;;5091863;28;20051;-61
2021/10/11 05:15:16;;;;;;;122.05;52.33;;;9.60;99.90;;;;;;5092013;28;20043;-59
2021/10/11 05:17:42;;;;;;;133.75;56.88;;;9.60;99.90;;;;;;5091782;28;20135;-59
2021/10/11 05:20:08;;;;;;;127.90;59.45;;;9.60;99.90;;;;;;5108120;28;20031;-59
2021/10/11 05:22:34;;;;;;;125.65;56.92;;;9.60;99.90;;;;;;5111305;28;20106;-59
2021/10/11 05:24:59;;;;;;;124.40;55.88;;;9.70;99.90;;;;;;5100913;28;20443;-58
2021/10/11 05:27:25;;;;;;;132.55;59.45;;;9.80;99.90;;;;;;5088907;28;20035;-62
2021/10/11 05:29:51;;;;;;;117.25;53.65;;;9.90;99.90;;;;;;5092118;28;20020;-59
2021/10/11 05:32:16;;;;;;;127.03;59.60;;;10.00;99.90;;;;;;5090432;28;20103;-61
2021/10/11 05:34:42;;;;;;;121.18;56.20;;;10.00;99.90;;;;;;5091710;28;20105;-61
2021/10/11 05:37:08;;;;;;;169.65;71.05;;;10.10;99.90;;;;;;5091483;28;20027;-58
2021/10/11 05:39:33;;;;;;;162.25;69.45;;;10.10;99.90;;;;;;5091445;28;20028;-57
2021/10/11 05:41:59;;;;;;;166.98;71.30;;;10.20;99.90;;;;;;5091169;28;20027;-59
2021/10/11 05:44:24;;;;;;;186.13;80.47;;;10.30;99.90;;;;;;5091421;28;20027;-58
2021/10/11 05:46:50;;;;;;;174.80;78.00;;;10.40;99.90;;;;;;5091020;28;20030;-61
2021/10/11 05:49:17;;;;;;;178.13;78.43;;;10.40;99.90;;;;;;5091812;28;20026;-59
2021/10/11 05:51:43;;;;;;;173.95;76.63;;;10.40;99.90;;;;;;5097712;28;20085;-60
2021/10/11 05:54:08;;;;;;;190.27;81.13;;;10.40;99.90;;;;;;5110870;28;20019;-59
2021/10/11 05:56:34;;;;;;;191.23;81.18;;;10.50;99.90;;;;;;5112083;28;20043;-59
2021/10/11 05:59:02;;;;;;;202.30;83.80;;;10.50;99.90;;;;;;5111814;28;20027;-59
2021/10/11 06:01:27;;;;;;;192.18;75.38;;;10.50;99.90;;;;;;5093019;28;20022;-58
2021/10/11 06:03:53;;;;;;;174.05;71.18;;;10.50;99.90;;;;;;5111508;28;20032;-59
2021/10/11 06:06:18;;;;;;;207.57;82.03;;;10.40;99.90;;;;;;5111417;28;20024;-58
2021/10/11 06:08:44;;;;;;;179.57;75.63;;;10.40;99.90;;;;;;5109254;28;20462;-59
2021/10/11 06:11:17;;;;;;;203.80;84.93;;;10.40;99.90;;;;;;5111057;28;20084;-59
2021/10/11 06:13:43;;;;;;;190.15;79.00;;;10.40;99.90;;;;;;5111364;28;20031;-59
2021/10/11 06:16:09;;;;;;;208.15;84.93;;;10.40;99.90;;;;;;5087172;28;20346;-58
2021/10/11 06:18:35;;;;;;;179.32;76.47;;;10.40;99.90;;;;;;5090225;28;20027;-59
2021/10/11 06:21:00;;;;;;;192.77;78.40;;;10.50;99.90;;;;;;5090337;28;20024;-58
2021/10/11 06:23:26;;;;;;;204.30;79.75;;;10.50;99.90;;;;;;5090879;28;20442;-59
2021/10/11 06:25:52;;;;;;;181.02;74.88;;;10.50;99.90;;;;;;5110224;28;20020;-61
2021/10/11 06:28:19;;;;;;;176.45;77.55;;;10.50;99.90;;;;;;5111171;28;20364;-58
2021/10/11 06:30:46;;;;;;;178.15;74.13;;;10.60;99.90;;;;;;5110717;28;20019;-60
2021/10/11 06:33:13;;;;;;;186.10;79.80;;;10.70;99.90;;;;;;5110947;28;20020;-59
2021/10/11 06:35:38;;;;;;;228.60;86.18;;;10.70;99.90;;;;;;5111092;28;20477;-58
2021/10/11 06:38:04;;;;;;;200.27;84.43;;;10.70;99.90;;;;;;5111113;28;20020;-59
2021/10/11 06:40:29;;;;;;;215.35;84.97;;;10.80;99.90;;;;;;5106429;28;20109;-60
2021/10/11 06:42:55;;;;;;;229.13;91.55;;;10.80;99.90;;;;;;5090404;28;20028;-58
2021/10/11 06:45:20;;;;;;;211.88;82.28;;;10.80;99.90;;;;;;5090665;28;20032;-57
2021/10/11 06:47:47;;;;;;;206.60;81.68;;;10.80;99.90;;;;;;5090540;28;20031;-58
2021/10/11 06:50:13;;;;;;;206.15;82.30;;;10.80;99.90;;;;;;5090081;28;20465;-61
2021/10/11 06:52:38;;;;;;;212.82;87.25;;;10.90;99.90;;;;;;5090108;28;20030;-59
2021/10/11 06:55:04;;;;;;;233.93;89.70;;;10.90;99.90;;;;;;5090480;28;20020;-62
2021/10/11 06:57:30;;;;;;;227.48;87.78;;;10.90;99.90;;;;;;5091821;28;20381;-62
2021/10/11 06:59:55;;;;;;;196.23;78.90;;;10.90;99.90;;;;;;5089983;28;20016;-60
2021/10/11 07:02:21;;;;;;;220.35;86.68;;;10.90;99.90;;;;;;5091020;28;20032;-60
2021/10/11 07:04:47;;;;;;;218.55;82.50;;;11.00;99.90;;;;;;5100120;28;20027;-59
2021/10/11 07:07:12;;;;;;;220.27;84.63;;;11.00;99.90;;;;;;5114952;28;20023;-59
2021/10/11 07:09:38;;;;;;;220.52;85.20;;;11.00;99.90;;;;;;5114589;28;20027;-58
2021/10/11 07:12:04;;;;;;;218.18;83.78;;;11.10;99.90;;;;;;5108628;28;20028;-59
2021/10/11 07:14:30;;;;;;;209.00;83.60;;;11.10;99.90;;;;;;5094220;28;20020;-59
2021/10/11 07:16:55;;;;;;;199.70;78.60;;;11.20;99.90;;;;;;5094139;28;20012;-58
2021/10/11 07:19:21;;;;;;;212.38;79.07;;;11.30;99.90;;;;;;5104472;28;20104;-61
2021/10/11 07:21:46;;;;;;;184.70;70.45;;;11.40;99.90;;;;;;5114120;28;20035;-59
2021/10/11 07:24:14;;;;;;;180.80;68.63;;;11.50;99.90;;;;;;5114230;28;20108;-61
2021/10/11 07:26:40;;;;;;;165.73;65.97;;;11.60;99.90;;;;;;5114650;28;20022;-60
2021/10/11 07:29:06;;;;;;;162.85;67.35;;;11.60;99.90;;;;;;5114396;28;20050;-60
2021/10/11 07:31:32;;;;;;;164.38;65.65;;;11.70;99.90;;;;;;5111698;28;20063;-61
2021/10/11 07:33:57;;;;;;;167.27;65.20;;;11.80;99.90;;;;;;5094310;28;20016;-58
2021/10/11 07:36:23;;;;;;;158.23;58.63;;;11.80;99.90;;;;;;5094516;28;20026;-59
2021/10/11 07:38:48;;;;;;;140.02;55.33;;;11.90;99.90;;;;;;5093422;28;20020;-59
2021/10/11 07:41:14;;;;;;;128.20;53.15;;;12.00;99.90;;;;;;5093353;28;20028;-58
2021/10/11 07:43:39;;;;;;;113.60;49.08;;;12.00;99.90;;;;;;5093361;28;20031;-59
2021/10/11 07:46:06;;;;;;;108.93;44.90;;;12.10;99.90;;;;;;5093686;28;20405;-60
2021/10/11 07:48:32;;;;;;;104.63;45.70;;;12.10;99.90;;;;;;5094211;28;20031;-59
2021/10/11 07:50:58;;;;;;;102.22;44.65;;;12.10;99.90;;;;;;5093176;28;20012;-60
2021/10/11 07:53:24;;;;;;;104.75;44.72;;;12.10;99.90;;;;;;5094654;28;20070;-59
2021/10/11 07:55:49;;;;;;;103.95;43.05;;;12.20;99.90;;;;;;5093628;28;20396;-59
2021/10/11 07:58:15;;;;;;;84.93;35.92;;;12.20;99.90;;;;;;5093960;28;20488;-60
2021/10/11 08:00:41;;;;;;;79.07;32.83;;;12.20;99.90;;;;;;5092600;28;20073;-60
2021/10/11 08:03:08;;;;;;;80.15;30.25;;;12.30;99.90;;;;;;5093909;28;20036;-57
2021/10/11 08:05:34;;;;;;;67.90;26.83;;;12.30;99.90;;;;;;5093394;28;20024;-58
2021/10/11 08:07:59;;;;;;;59.63;24.08;;;12.30;99.90;;;;;;5093416;28;20826;-60
2021/10/11 08:10:25;;;;;;;70.82;23.52;;;12.40;99.90;;;;;;5094363;28;20485;-59
2021/10/11 08:12:50;;;;;;;55.03;22.90;;;12.50;99.90;;;;;;5092483;28;20074;-59
2021/10/11 08:15:17;;;;;;;48.50;19.08;;;12.50;99.90;;;;;;5092284;28;20024;-58
2021/10/11 08:17:43;;;;;;;41.05;17.27;;;12.60;99.90;;;;;;5093028;28;20016;-59
2021/10/11 08:20:09;;;;;;;43.92;17.92;;;12.70;99.90;;;;;;5092767;28;20065;-59
2021/10/11 08:22:35;;;;;;;44.22;16.73;;;12.70;99.90;;;;;;5092615;28;20028;-59
2021/10/11 08:25:02;;;;;;;41.15;14.20;;;12.80;99.90;;;;;;5092969;28;20028;-58
2021/10/11 08:27:29;;;;;;;30.95;14.07;;;12.80;99.90;;;;;;5113083;28;20030;-59
2021/10/11 08:29:55;;;;;;;30.58;12.52;;;12.90;99.90;;;;;;5113138;28;20019;-59
2021/10/11 08:32:25;;;;;;;28.90;12.35;;;12.80;99.90;;;;;;5094110;28;20148;-59
2021/10/11 08:34:52;;;;;;;32.38;12.25;;;12.90;99.90;;;;;;5113354;28;20023;-61
2021/10/11 08:37:19;;;;;;;28.27;11.48;;;12.90;99.90;;;;;;5113364;28;20022;-58
2021/10/11 08:39:44;;;;;;;28.25;11.60;;;12.90;99.90;;;;;;5113161;28;20016;-59
2021/10/11 08:42:14;;;;;;;33.55;10.75;;;13.00;99.90;;;;;;5110936;28;20026;-59
2021/10/11 08:44:40;;;;;;;35.85;10.85;;;13.00;99.90;;;;;;5113124;28;20127;-56
2021/10/11 08:47:08;;;;;;;26.20;8.88;;;13.10;99.90;;;;;;5113007;28;20106;-58
2021/10/11 08:49:34;;;;;;;21.58;8.20;;;13.10;99.90;;;;;;5113012;28;20047;-59
2021/10/11 08:51:59;;;;;;;17.20;7.03;;;13.20;99.90;;;;;;5112433;28;20067;-62
2021/10/11 08:54:25;;;;;;;15.10;5.88;;;13.30;99.90;;;;;;5112411;28;20011;-59
2021/10/11 08:56:50;;;;;;;26.73;6.88;;;13.40;99.90;;;;;;5112706;28;20034;-59
2021/10/11 08:59:28;;;;;;;21.63;6.10;;;13.60;99.90;;;;;;5092813;28;20069;-59
2021/10/11 09:02:09;;;;;;;26.77;6.20;;;13.70;99.90;;;;;;5112276;28;20020;-57
2021/10/11 09:04:46;;;;;;;23.73;5.30;;;13.70;99.90;;;;;;5107266;28;20027;-61
2021/10/11 09:07:11;;;;;;;29.02;5.15;;;13.80;99.90;;;;;;5092127;28;20016;-59
2021/10/11 09:09:58;;;;;;;23.40;4.60;;;13.80;99.90;;;;;;5091883;28;20499;-60
2021/10/11 09:12:29;;;;;;;26.08;4.38;;;13.80;99.90;;;;;;5091230;28;20047;-60
2021/10/11 09:15:09;;;;;;;22.00;4.15;;;13.80;99.90;;;;;;5092409;28;20373;-60
2021/10/11 09:17:40;;;;;;;18.10;3.80;;;13.80;99.90;;;;;;5091887;28;20477;-59
2021/10/11 09:20:19;;;;;;;14.82;4.22;;;13.80;99.90;;;;;;5107978;28;20032;-59
2021/10/11 09:22:46;;;;;;;16.48;4.28;;;13.90;99.90;;;;;;5107835;22;20127;-58
2021/10/11 09:25:14;;;;;;;22.85;4.47;;;13.90;99.90;;;;;;5071227;28;20091;-61
2021/10/11 09:27:42;;;;;;;18.40;4.43;;;14.00;99.90;;;;;;5070546;28;20020;-61
2021/10/11 09:30:09;;;;;;;24.85;4.45;;;14.00;99.90;;;;;;5070893;28;20023;-60
2021/10/11 09:32:35;;;;;;;12.65;3.85;;;14.00;99.90;;;;;;5071171;28;20024;-59
2021/10/11 09:35:31;;;;;;;17.88;3.35;;;14.00;99.90;;;;;;5070222;28;20374;-58
2021/10/11 09:37:57;;;;;;;25.33;3.42;;;14.00;99.90;;;;;;5070487;28;20409;-61
2021/10/11 09:40:24;;;;;;;21.63;3.15;;;14.10;99.90;;;;;;5070707;28;20016;-57
2021/10/11 09:42:50;;;;;;;21.63;3.53;;;14.20;99.90;;;;;;5070113;28;20017;-60
2021/10/11 09:45:21;;;;;;;15.63;2.83;;;14.20;99.90;;;;;;5071101;28;20034;-60
2021/10/11 09:47:46;;;;;;;16.75;3.22;;;14.20;99.90;;;;;;5071040;28;20031;-57
2021/10/11 09:50:17;;;;;;;17.05;2.92;;;14.20;99.90;;;;;;5053016;28;20032;-60
2021/10/11 09:52:43;;;;;;;30.52;3.65;;;14.30;99.90;;;;;;5070126;28;20058;-62
2021/10/11 09:55:10;;;;;;;14.10;2.97;;;14.20;99.90;;;;;;5070980;28;20378;-62
2021/10/11 09:57:36;;;;;;;18.17;2.33;;;14.30;99.90;;;;;;5070841;28;20128;-61
2021/10/11 10:00:08;;;;;;;12.65;3.25;;;14.30;99.90;;;;;;5070385;28;20012;-61
2021/10/11 10:02:36;;;;;;;16.08;2.53;;;14.40;99.90;;;;;;5070364;28;20029;-60
2021/10/11 10:05:04;;;;;;;13.95;2.00;;;14.30;99.90;;;;;;5070272;28;20024;-58
2021/10/11 10:07:34;;;;;;;17.55;2.88;;;14.30;99.90;;;;;;5070449;28;20021;-58
2021/10/11 10:10:03;;;;;;;14.90;2.30;;;14.30;99.90;;;;;;5050881;28;20021;-60
2021/10/11 10:12:28;;;;;;;21.52;3.00;;;14.40;99.90;;;;;;5050082;28;20025;-55
2021/10/11 10:15:02;;;;;;;19.17;3.30;;;14.50;99.90;;;;;;5032869;28;20366;-59
2021/10/11 10:17:32;;;;;;;16.98;2.60;;;14.50;99.90;;;;;;5064978;28;20545;-62
2021/10/11 10:20:12;;;;;;;23.60;2.88;;;14.60;99.90;;;;;;5070931;28;20025;-62
2021/10/11 10:22:42;;;;;;;17.77;2.60;;;14.80;99.90;;;;;;5070034;28;20647;-61
2021/10/11 10:25:10;;;;;;;14.55;2.53;;;14.90;99.90;;;;;;5070348;28;20025;-60
2021/10/11 10:27:40;;;;;;;16.55;2.70;;;14.80;99.90;;;;;;5071018;28;20028;-61
2021/10/11 10:30:25;;;;;;;15.20;2.42;;;14.80;99.90;;;;;;5070440;28;20032;-62
2021/10/11 10:33:02;;;;;;;19.65;2.35;;;14.80;99.90;;;;;;5069815;28;20021;-64
2021/10/11 10:35:32;;;;;;;16.98;2.78;;;14.80;99.90;;;;;;5070458;28;20020;-60
2021/10/11 10:37:58;;;;;;;21.50;2.55;;;14.70;99.90;;;;;;5070225;28;20606;-60
2021/10/11 10:40:30;;;;;;;16.80;2.70;;;14.70;99.90;;;;;;5070019;28;20091;-61
2021/10/11 10:43:15;;;;;;;9.35;2.08;;;14.80;99.90;;;;;;5069624;28;20031;-62
2021/10/11 10:45:41;;;;;;;17.25;2.65;;;14.90;99.90;;;;;;5070744;28;20021;-58
2021/10/11 10:48:45;;;;;;;17.90;2.22;;;15.00;99.90;;;;;;5069922;28;20021;-59
2021/10/11 10:51:11;;;;;;;16.17;2.30;;;15.10;99.90;;;;;;5062330;28;20033;-62
2021/10/11 10:53:37;;;;;;;20.38;2.67;;;15.10;99.90;;;;;;5070489;28;20618;-60
2021/10/11 10:56:05;;;;;;;15.05;2.33;;;15.10;99.90;;;;;;5070505;28;20009;-59
2021/10/11 10:58:30;;;;;;;20.35;2.47;;;15.10;99.90;;;;;;5070741;28;20020;-61
2021/10/11 11:00:56;;;;;;;21.17;2.60;;;15.20;99.90;;;;;;5070010;28;20074;-61
2021/10/11 11:03:22;;;;;;;14.85;2.30;;;15.20;99.90;;;;;;5071672;28;20032;-60
2021/10/11 11:05:50;;;;;;;15.02;2.58;;;15.10;99.90;;;;;;5070368;28;20020;-60
2021/10/11 11:08:18;;;;;;;22.05;2.65;;;15.20;99.90;;;;;;5052463;28;20386;-61
2021/10/11 11:10:44;;;;;;;17.55;1.88;;;15.20;99.90;;;;;;5070323;28;20065;-59
2021/10/11 11:13:15;;;;;;;17.25;2.45;;;15.10;99.90;;;;;;5069887;28;20378;-59
2021/10/11 11:15:50;;;;;;;10.68;1.85;;;15.20;99.90;;;;;;5069563;28;20032;-59
2021/10/11 11:18:21;;;;;;;14.23;1.73;;;15.10;99.90;;;;;;5069739;28;20024;-60
2021/10/11 11:20:49;;;;;;;11.40;2.28;;;15.10;99.90;;;;;;5069569;28;20013;-61
2021/10/11 11:23:16;;;;;;;17.15;2.10;;;15.10;99.90;;;;;;5068483;28;20505;-61
2021/10/11 11:25:44;;;;;;;8.52;2.15;;;15.20;99.90;;;;;;5068668;28;20036;-57
2021/10/11 11:28:12;;;;;;;14.40;2.55;;;15.30;99.90;;;;;;5053445;28;20028;-60
2021/10/11 11:30:38;;;;;;;12.05;2.10;;;15.30;99.90;;;;;;5059624;28;20622;-61
2021/10/11 11:33:08;;;;;;;15.02;2.35;;;15.30;99.90;;;;;;5069207;28;20374;-60
2021/10/11 11:35:42;;;;;;;18.83;2.75;;;15.30;99.90;;;;;;5068330;28;20074;-62
2021/10/11 11:38:10;;;;;;;8.47;1.73;;;15.30;99.90;;;;;;5050362;28;20017;-61
2021/10/11 11:40:39;;;;;;;14.82;2.70;;;15.40;99.90;;;;;;5049266;28;20092;-59
2021/10/11 11:43:07;;;;;;;14.40;2.03;;;15.30;99.90;;;;;;5049542;28;20497;-61
2021/10/11 11:45:47;;;;;;;17.73;2.55;;;15.30;99.90;;;;;;5049713;28;20036;-62
2021/10/11 11:48:17;;;;;;;22.23;3.17;;;15.20;99.90;;;;;;5049337;28;20060;-58
2021/10/11 11:50:44;;;;;;;18.70;2.70;;;15.30;99.90;;;;;;5032328;28;20536;-57
2021/10/11 11:53:12;;;;;;;14.18;1.88;;;15.30;99.90;;;;;;5068141;28;20025;-60
2021/10/11 11:55:39;;;;;;;8.65;1.83;;;15.30;99.90;;;;;;5073260;28;20024;-61
2021/10/11 11:58:13;;;;;;;10.82;2.03;;;15.40;99.90;;;;;;5073154;28;20024;-58
2021/10/11 12:00:44;;;;;;;17.92;2.60;;;15.50;99.90;;;;;;5072484;28;20016;-61
2021/10/11 12:03:11;;;;;;;24.08;2.78;;;15.50;99.90;;;;;;5072643;28;20542;-58
2021/10/11 12:05:37;;;;;;;26.70;2.72;;;15.50;99.90;;;;;;5073058;28;20021;-61
2021/10/11 12:08:03;;;;;;;13.63;2.38;;;15.50;99.90;;;;;;5072805;28;20779;-63
2021/10/11 12:10:29;;;;;;;16.17;2.92;;;15.50;99.90;;;;;;5072451;28;20095;-59
2021/10/11 12:13:05;;;;;;;12.48;2.58;;;15.40;99.90;;;;;;5073088;28;20036;-62
2021/10/11 12:15:32;;;;;;;8.48;2.00;;;15.40;99.90;;;;;;5072762;28;20385;-62
2021/10/11 12:18:16;;;;;;;9.48;2.08;;;15.40;99.90;;;;;;5072494;28;20028;-62
2021/10/11 12:20:52;;;;;;;18.13;2.00;;;15.50;99.90;;;;;;5072865;28;20091;-62
2021/10/11 12:23:18;;;;;;;17.27;1.98;;;15.50;99.90;;;;;;5072572;28;20028;-61
2021/10/11 12:25:46;;;;;;;18.67;1.98;;;15.40;99.90;;;;;;5072253;28;20123;-62
2021/10/11 12:28:19;;;;;;;13.43;2.65;;;15.30;99.90;;;;;;5072541;28;20098;-58
2021/10/11 12:30:49;;;;;;;17.20;2.22;;;15.30;99.90;;;;;;5072495;28;20025;-61